sensor_id;sensor_type;location;lat;lon;timestamp;temperature;humidity
16980;DHT22;42288;52.182;21.156;2023-07-13T00:00:25;19.40;99.90
16980;DHT22;42288;52.182;21.156;2023-07-13T00:02:51;19.30;99.90
16980;DHT22;42288;52.182;21.156;2023-07-13T00:05:20;19.30;99.90
16980;DHT22;42288;52.182;21.156;2023-07-13T00:07:45;19.30;99.90
16980;DHT22;42288;52.182;21.156;2023-07-13T00:10:12;19.30;99.90
16980;DHT22;42288;52.182;21.156;2023-07-13T00:12:38;19.40;99.90
16980;DHT22;42288;52.182;21.156;2023-07-13T00:15:09;19.30;99.90
16980;DHT22;42288;52.182;21.156;2023-07-13T00:17:36;19.30;99.90
16980;DHT22;42288;52.182;21.156;2023-07-13T00:20:04;19.30;99.90
16980;DHT22;42288;52.182;21.156;2023-07-13T00:22:30;19.30;99.90
16980;DHT22;42288;52.182;21.156;2023-07-13T00:24:55;19.30;99.90
16980;DHT22;42288;52.182;21.156;2023-07-13T00:27:22;19.20;99.90
16980;DHT22;42288;52.182;21.156;2023-07-13T00:29:47;19.10;99.90
16980;DHT22;42288;52.182;21.156;2023-07-13T00:32:13;19.00;99.90
16980;DHT22;42288;52.182;21.156;2023-07-13T00:34:39;19.00;99.90
16980;DHT22;42288;52.182;21.156;2023-07-13T00:37:06;19.00;99.90
16980;DHT22;42288;52.182;21.156;2023-07-13T00:39:35;19.00;99.90
16980;DHT22;42288;52.182;21.156;2023-07-13T00:42:01;18.90;99.90
16980;DHT22;42288;52.182;21.156;2023-07-13T00:44:27;18.90;99.90
16980;DHT22;42288;52.182;21.156;2023-07-13T00:46:52;18.80;99.90
16980;DHT22;42288;52.182;21.156;2023-07-13T00:49:21;19.00;99.90
16980;DHT22;42288;52.182;21.156;2023-07-13T00:51:55;18.80;99.90
16980;DHT22;42288;52.182;21.156;2023-07-13T00:54:24;18.80;99.90
16980;DHT22;42288;52.182;21.156;2023-07-13T00:56:54;18.80;99.90
16980;DHT22;42288;52.182;21.156;2023-07-13T00:59:21;18.80;99.90
16980;DHT22;42288;52.182;21.156;2023-07-13T01:01:48;18.80;99.90
16980;DHT22;42288;52.182;21.156;2023-07-13T01:04:14;18.80;99.90
16980;DHT22;42288;52.182;21.156;2023-07-13T01:06:40;18.90;99.90
16980;DHT22;42288;52.182;21.156;2023-07-13T01:09:07;18.90;99.90
16980;DHT22;42288;52.182;21.156;2023-07-13T01:11:33;18.90;99.90
16980;DHT22;42288;52.182;21.156;2023-07-13T01:14:00;18.90;99.90
16980;DHT22;42288;52.182;21.156;2023-07-13T01:16:29;18.90;99.90
16980;DHT22;42288;52.182;21.156;2023-07-13T01:18:56;18.80;99.90
16980;DHT22;42288;52.182;21.156;2023-07-13T01:21:25;18.80;99.90
16980;DHT22;42288;52.182;21.156;2023-07-13T01:23:52;18.80;99.90
16980;DHT22;42288;52.182;21.156;2023-07-13T01:26:17;18.90;99.90
16980;DHT22;42288;52.182;21.156;2023-07-13T01:28:43;18.90;99.90
16980;DHT22;42288;52.182;21.156;2023-07-13T01:31:09;19.00;99.90
16980;DHT22;42288;52.182;21.156;2023-07-13T01:33:38;19.00;99.90
16980;DHT22;42288;52.182;21.156;2023-07-13T01:36:06;18.90;99.90
16980;DHT22;42288;52.182;21.156;2023-07-13T01:38:32;18.90;99.90
16980;DHT22;42288;52.182;21.156;2023-07-13T01:40:58;18.90;99.90
16980;DHT22;42288;52.182;21.156;2023-07-13T01:43:23;18.90;99.90
16980;DHT22;42288;52.182;21.156;2023-07-13T01:45:49;19.00;99.90
16980;DHT22;42288;52.182;21.156;2023-07-13T01:48:15;19.00;99.90
16980;DHT22;42288;52.182;21.156;2023-07-13T01:50:40;19.00;99.90
16980;DHT22;42288;52.182;21.156;2023-07-13T01:53:06;19.00;99.90
16980;DHT22;42288;52.182;21.156;2023-07-13T01:55:32;19.00;99.90
16980;DHT22;42288;52.182;21.156;2023-07-13T01:57:58;19.00;99.90
16980;DHT22;42288;52.182;21.156;2023-07-13T02:00:24;19.00;99.90
16980;DHT22;42288;52.182;21.156;2023-07-13T02:02:50;18.90;99.90
16980;DHT22;42288;52.182;21.156;2023-07-13T02:05:15;18.90;99.90
16980;DHT22;42288;52.182;21.156;2023-07-13T02:07:41;18.90;99.90
16980;DHT22;42288;52.182;21.156;2023-07-13T02:10:08;18.80;99.90
16980;DHT22;42288;52.182;21.156;2023-07-13T02:12:34;18.80;99.90
16980;DHT22;42288;52.182;21.156;2023-07-13T02:15:00;18.80;99.90
16980;DHT22;42288;52.182;21.156;2023-07-13T02:17:26;18.80;99.90
16980;DHT22;42288;52.182;21.156;2023-07-13T02:19:52;18.70;99.90
16980;DHT22;42288;52.182;21.156;2023-07-13T02:22:18;18.70;99.90
16980;DHT22;42288;52.182;21.156;2023-07-13T02:24:43;18.70;99.90
16980;DHT22;42288;52.182;21.156;2023-07-13T02:27:09;18.80;99.90
16980;DHT22;42288;52.182;21.156;2023-07-13T02:29:34;18.80;99.90
16980;DHT22;42288;52.182;21.156;2023-07-13T02:32:00;18.80;99.90
16980;DHT22;42288;52.182;21.156;2023-07-13T02:34:26;18.70;99.90
16980;DHT22;42288;52.182;21.156;2023-07-13T02:36:51;18.60;99.90
16980;DHT22;42288;52.182;21.156;2023-07-13T02:39:18;18.60;99.90
16980;DHT22;42288;52.182;21.156;2023-07-13T02:41:43;18.70;99.90
16980;DHT22;42288;52.182;21.156;2023-07-13T02:44:09;18.70;99.90
16980;DHT22;42288;52.182;21.156;2023-07-13T02:46:36;18.80;99.90
16980;DHT22;42288;52.182;21.156;2023-07-13T02:49:02;18.70;99.90
16980;DHT22;42288;52.182;21.156;2023-07-13T02:51:28;18.70;99.90
16980;DHT22;42288;52.182;21.156;2023-07-13T02:53:54;18.70;99.90
16980;DHT22;42288;52.182;21.156;2023-07-13T02:56:23;18.70;99.90
16980;DHT22;42288;52.182;21.156;2023-07-13T02:58:49;18.70;99.90
16980;DHT22;42288;52.182;21.156;2023-07-13T03:01:14;18.70;99.90
16980;DHT22;42288;52.182;21.156;2023-07-13T03:03:43;18.70;99.90
16980;DHT22;42288;52.182;21.156;2023-07-13T03:06:09;18.70;99.90
16980;DHT22;42288;52.182;21.156;2023-07-13T03:08:34;18.80;99.90
16980;DHT22;42288;52.182;21.156;2023-07-13T03:11:06;18.70;99.90
16980;DHT22;42288;52.182;21.156;2023-07-13T03:13:32;18.70;99.90
16980;DHT22;42288;52.182;21.156;2023-07-13T03:15:58;18.70;99.90
16980;DHT22;42288;52.182;21.156;2023-07-13T03:18:25;18.60;99.90
16980;DHT22;42288;52.182;21.156;2023-07-13T03:20:51;18.60;99.90
16980;DHT22;42288;52.182;21.156;2023-07-13T03:23:17;18.60;99.90
16980;DHT22;42288;52.182;21.156;2023-07-13T03:25:43;18.60;99.90
16980;DHT22;42288;52.182;21.156;2023-07-13T03:28:09;18.50;99.90
16980;DHT22;42288;52.182;21.156;2023-07-13T03:30:35;18.50;99.90
16980;DHT22;42288;52.182;21.156;2023-07-13T03:33:00;18.50;99.90
16980;DHT22;42288;52.182;21.156;2023-07-13T03:35:26;18.60;99.90
16980;DHT22;42288;52.182;21.156;2023-07-13T03:37:51;18.60;99.90
16980;DHT22;42288;52.182;21.156;2023-07-13T03:40:17;18.70;99.90
16980;DHT22;42288;52.182;21.156;2023-07-13T03:42:43;18.90;99.90
16980;DHT22;42288;52.182;21.156;2023-07-13T03:45:08;19.00;99.90
16980;DHT22;42288;52.182;21.156;2023-07-13T03:47:34;18.90;99.90
16980;DHT22;42288;52.182;21.156;2023-07-13T03:49:59;18.90;99.90
16980;DHT22;42288;52.182;21.156;2023-07-13T03:52:25;19.00;99.90
16980;DHT22;42288;52.182;21.156;2023-07-13T03:54:51;19.20;99.90
16980;DHT22;42288;52.182;21.156;2023-07-13T03:57:16;19.40;99.90
16980;DHT22;42288;52.182;21.156;2023-07-13T03:59:42;19.40;99.90
16980;DHT22;42288;52.182;21.156;2023-07-13T04:02:07;19.40;99.90
16980;DHT22;42288;52.182;21.156;2023-07-13T04:04:33;19.50;99.90
16980;DHT22;42288;52.182;21.156;2023-07-13T04:06:59;19.60;99.90
16980;DHT22;42288;52.182;21.156;2023-07-13T04:09:25;19.60;99.90
16980;DHT22;42288;52.182;21.156;2023-07-13T04:11:50;19.70;99.90
16980;DHT22;42288;52.182;21.156;2023-07-13T04:14:16;19.80;99.90
16980;DHT22;42288;52.182;21.156;2023-07-13T04:16:42;19.90;99.90
16980;DHT22;42288;52.182;21.156;2023-07-13T04:19:09;20.10;99.90
16980;DHT22;42288;52.182;21.156;2023-07-13T04:21:36;20.20;99.90
16980;DHT22;42288;52.182;21.156;2023-07-13T04:24:03;20.20;99.90
16980;DHT22;42288;52.182;21.156;2023-07-13T04:26:29;20.40;99.90
16980;DHT22;42288;52.182;21.156;2023-07-13T04:28:55;20.50;99.90
16980;DHT22;42288;52.182;21.156;2023-07-13T04:31:21;20.80;99.90
16980;DHT22;42288;52.182;21.156;2023-07-13T04:33:48;21.10;99.90
16980;DHT22;42288;52.182;21.156;2023-07-13T04:36:14;21.30;99.90
16980;DHT22;42288;52.182;21.156;2023-07-13T04:38:40;21.50;99.90
16980;DHT22;42288;52.182;21.156;2023-07-13T04:41:07;21.60;99.90
16980;DHT22;42288;52.182;21.156;2023-07-13T04:43:34;21.60;99.90
16980;DHT22;42288;52.182;21.156;2023-07-13T04:46:05;21.70;99.90
16980;DHT22;42288;52.182;21.156;2023-07-13T04:48:30;21.80;99.90
16980;DHT22;42288;52.182;21.156;2023-07-13T04:50:57;21.80;99.90
16980;DHT22;42288;52.182;21.156;2023-07-13T04:53:23;21.90;99.90
16980;DHT22;42288;52.182;21.156;2023-07-13T04:55:49;21.90;99.90
16980;DHT22;42288;52.182;21.156;2023-07-13T04:58:15;21.90;99.90
16980;DHT22;42288;52.182;21.156;2023-07-13T05:00:40;21.90;99.90
16980;DHT22;42288;52.182;21.156;2023-07-13T05:03:06;22.10;99.90
16980;DHT22;42288;52.182;21.156;2023-07-13T05:05:32;22.20;99.90
16980;DHT22;42288;52.182;21.156;2023-07-13T05:07:57;22.10;99.90
16980;DHT22;42288;52.182;21.156;2023-07-13T05:10:23;22.00;99.90
16980;DHT22;42288;52.182;21.156;2023-07-13T05:12:49;21.90;99.90
16980;DHT22;42288;52.182;21.156;2023-07-13T05:15:15;22.00;99.90
16980;DHT22;42288;52.182;21.156;2023-07-13T05:17:41;22.00;99.90
16980;DHT22;42288;52.182;21.156;2023-07-13T05:20:08;22.00;99.90
16980;DHT22;42288;52.182;21.156;2023-07-13T05:22:34;22.10;99.90
16980;DHT22;42288;52.182;21.156;2023-07-13T05:25:01;22.00;99.90
16980;DHT22;42288;52.182;21.156;2023-07-13T05:27:27;22.10;99.90
16980;DHT22;42288;52.182;21.156;2023-07-13T05:29:53;22.10;99.90
16980;DHT22;42288;52.182;21.156;2023-07-13T05:32:18;22.10;99.90
16980;DHT22;42288;52.182;21.156;2023-07-13T05:34:44;22.10;99.90
16980;DHT22;42288;52.182;21.156;2023-07-13T05:37:10;22.00;99.90
16980;DHT22;42288;52.182;21.156;2023-07-13T05:39:36;22.10;99.90
16980;DHT22;42288;52.182;21.156;2023-07-13T05:42:02;22.20;99.90
16980;DHT22;42288;52.182;21.156;2023-07-13T05:44:27;22.30;99.90
16980;DHT22;42288;52.182;21.156;2023-07-13T05:46:54;22.40;99.90
16980;DHT22;42288;52.182;21.156;2023-07-13T05:49:22;22.50;99.90
16980;DHT22;42288;52.182;21.156;2023-07-13T05:51:48;22.60;99.90
16980;DHT22;42288;52.182;21.156;2023-07-13T05:54:13;22.60;99.90
16980;DHT22;42288;52.182;21.156;2023-07-13T05:56:39;22.70;99.90
16980;DHT22;42288;52.182;21.156;2023-07-13T05:59:04;22.90;99.90
16980;DHT22;42288;52.182;21.156;2023-07-13T06:01:30;23.00;99.90
16980;DHT22;42288;52.182;21.156;2023-07-13T06:03:56;23.10;99.90
16980;DHT22;42288;52.182;21.156;2023-07-13T06:06:22;23.20;99.90
16980;DHT22;42288;52.182;21.156;2023-07-13T06:08:48;23.30;99.90
16980;DHT22;42288;52.182;21.156;2023-07-13T06:11:19;23.30;99.90
16980;DHT22;42288;52.182;21.156;2023-07-13T06:13:45;23.30;99.90
16980;DHT22;42288;52.182;21.156;2023-07-13T06:16:11;23.50;99.90
16980;DHT22;42288;52.182;21.156;2023-07-13T06:18:37;23.70;99.90
16980;DHT22;42288;52.182;21.156;2023-07-13T06:21:08;23.80;99.90
16980;DHT22;42288;52.182;21.156;2023-07-13T06:23:34;23.70;99.90
16980;DHT22;42288;52.182;21.156;2023-07-13T06:26:00;23.70;99.90
16980;DHT22;42288;52.182;21.156;2023-07-13T06:28:25;23.70;99.90
16980;DHT22;42288;52.182;21.156;2023-07-13T06:30:51;23.60;99.90
16980;DHT22;42288;52.182;21.156;2023-07-13T06:33:16;23.50;99.90
16980;DHT22;42288;52.182;21.156;2023-07-13T06:35:42;23.60;99.90
16980;DHT22;42288;52.182;21.156;2023-07-13T06:38:08;23.70;99.90
16980;DHT22;42288;52.182;21.156;2023-07-13T06:40:34;23.80;99.90
16980;DHT22;42288;52.182;21.156;2023-07-13T06:42:59;24.00;99.90
16980;DHT22;42288;52.182;21.156;2023-07-13T06:45:25;24.10;99.90
16980;DHT22;42288;52.182;21.156;2023-07-13T06:47:50;24.20;99.90
16980;DHT22;42288;52.182;21.156;2023-07-13T06:50:16;24.20;99.90
16980;DHT22;42288;52.182;21.156;2023-07-13T06:52:42;24.20;99.90
16980;DHT22;42288;52.182;21.156;2023-07-13T06:55:07;24.40;99.90
16980;DHT22;42288;52.182;21.156;2023-07-13T06:57:33;24.40;99.90
16980;DHT22;42288;52.182;21.156;2023-07-13T06:59:59;24.20;99.90
16980;DHT22;42288;52.182;21.156;2023-07-13T07:02:24;24.30;99.90
16980;DHT22;42288;52.182;21.156;2023-07-13T07:04:50;24.20;99.90
16980;DHT22;42288;52.182;21.156;2023-07-13T07:07:16;24.30;99.90
16980;DHT22;42288;52.182;21.156;2023-07-13T07:09:41;24.40;99.90
16980;DHT22;42288;52.182;21.156;2023-07-13T07:12:07;24.60;99.90
16980;DHT22;42288;52.182;21.156;2023-07-13T07:14:33;24.80;99.90
16980;DHT22;42288;52.182;21.156;2023-07-13T07:17:00;24.90;99.90
16980;DHT22;42288;52.182;21.156;2023-07-13T07:19:27;25.00;99.90
16980;DHT22;42288;52.182;21.156;2023-07-13T07:21:53;25.20;99.90
16980;DHT22;42288;52.182;21.156;2023-07-13T07:24:18;25.30;99.90
16980;DHT22;42288;52.182;21.156;2023-07-13T07:26:44;25.30;99.90
16980;DHT22;42288;52.182;21.156;2023-07-13T07:29:10;25.20;99.80
16980;DHT22;42288;52.182;21.156;2023-07-13T07:31:35;25.30;98.80
16980;DHT22;42288;52.182;21.156;2023-07-13T07:34:02;25.30;97.60
16980;DHT22;42288;52.182;21.156;2023-07-13T07:36:28;25.20;98.00
16980;DHT22;42288;52.182;21.156;2023-07-13T07:38:53;25.30;99.30
16980;DHT22;42288;52.182;21.156;2023-07-13T07:41:19;25.30;99.90
16980;DHT22;42288;52.182;21.156;2023-07-13T07:43:45;25.30;99.90
16980;DHT22;42288;52.182;21.156;2023-07-13T07:46:10;25.50;99.90
16980;DHT22;42288;52.182;21.156;2023-07-13T07:48:36;25.60;99.90
16980;DHT22;42288;52.182;21.156;2023-07-13T07:51:01;25.60;97.30
16980;DHT22;42288;52.182;21.156;2023-07-13T07:53:27;25.80;96.10
16980;DHT22;42288;52.182;21.156;2023-07-13T07:55:53;25.60;91.70
16980;DHT22;42288;52.182;21.156;2023-07-13T07:58:18;25.70;92.30
16980;DHT22;42288;52.182;21.156;2023-07-13T08:00:44;25.80;93.30
16980;DHT22;42288;52.182;21.156;2023-07-13T08:03:10;25.80;93.90
16980;DHT22;42288;52.182;21.156;2023-07-13T08:05:36;25.90;94.60
16980;DHT22;42288;52.182;21.156;2023-07-13T08:08:02;25.90;98.20
16980;DHT22;42288;52.182;21.156;2023-07-13T08:10:28;25.90;98.20
16980;DHT22;42288;52.182;21.156;2023-07-13T08:12:53;26.00;98.70
16980;DHT22;42288;52.182;21.156;2023-07-13T08:15:19;26.10;99.50
16980;DHT22;42288;52.182;21.156;2023-07-13T08:17:47;26.10;99.30
16980;DHT22;42288;52.182;21.156;2023-07-13T08:20:13;26.10;99.90
16980;DHT22;42288;52.182;21.156;2023-07-13T08:22:39;26.30;99.90
16980;DHT22;42288;52.182;21.156;2023-07-13T08:25:05;26.20;99.90
16980;DHT22;42288;52.182;21.156;2023-07-13T08:27:30;26.20;99.90
16980;DHT22;42288;52.182;21.156;2023-07-13T08:29:56;26.20;98.90
16980;DHT22;42288;52.182;21.156;2023-07-13T08:32:23;26.40;98.80
16980;DHT22;42288;52.182;21.156;2023-07-13T08:34:48;26.60;98.80
16980;DHT22;42288;52.182;21.156;2023-07-13T08:37:14;26.90;97.40
16980;DHT22;42288;52.182;21.156;2023-07-13T08:39:40;26.80;95.50
16980;DHT22;42288;52.182;21.156;2023-07-13T08:47:49;26.90;92.80
16980;DHT22;42288;52.182;21.156;2023-07-13T08:50:19;27.00;93.30
16980;DHT22;42288;52.182;21.156;2023-07-13T08:52:46;27.10;92.80
16980;DHT22;42288;52.182;21.156;2023-07-13T08:55:20;27.00;93.00
16980;DHT22;42288;52.182;21.156;2023-07-13T08:58:06;27.20;92.60
16980;DHT22;42288;52.182;21.156;2023-07-13T09:00:59;27.00;92.80
16980;DHT22;42288;52.182;21.156;2023-07-13T09:03:35;27.10;93.30
16980;DHT22;42288;52.182;21.156;2023-07-13T09:06:02;27.20;93.40
16980;DHT22;42288;52.182;21.156;2023-07-13T09:09:02;27.30;94.00
16980;DHT22;42288;52.182;21.156;2023-07-13T09:11:50;27.40;93.30
16980;DHT22;42288;52.182;21.156;2023-07-13T09:17:05;27.40;93.60
16980;DHT22;42288;52.182;21.156;2023-07-13T09:19:33;27.50;94.60
16980;DHT22;42288;52.182;21.156;2023-07-13T09:22:03;27.70;93.60
16980;DHT22;42288;52.182;21.156;2023-07-13T09:24:41;27.90;93.10
16980;DHT22;42288;52.182;21.156;2023-07-13T09:27:19;27.90;93.50
16980;DHT22;42288;52.182;21.156;2023-07-13T09:29:50;27.90;92.00
16980;DHT22;42288;52.182;21.156;2023-07-13T09:32:18;28.20;91.90
16980;DHT22;42288;52.182;21.156;2023-07-13T09:34:53;28.40;91.90
16980;DHT22;42288;52.182;21.156;2023-07-13T09:37:21;28.60;92.60
16980;DHT22;42288;52.182;21.156;2023-07-13T09:39:49;28.30;91.10
16980;DHT22;42288;52.182;21.156;2023-07-13T09:42:21;28.20;91.30
16980;DHT22;42288;52.182;21.156;2023-07-13T09:47:25;28.30;91.80
16980;DHT22;42288;52.182;21.156;2023-07-13T09:50:08;28.30;91.30
16980;DHT22;42288;52.182;21.156;2023-07-13T09:52:42;28.40;90.90
16980;DHT22;42288;52.182;21.156;2023-07-13T09:58:24;28.80;89.90
16980;DHT22;42288;52.182;21.156;2023-07-13T10:00:56;28.60;84.40
16980;DHT22;42288;52.182;21.156;2023-07-13T10:03:27;28.30;84.80
16980;DHT22;42288;52.182;21.156;2023-07-13T10:05:54;28.20;85.80
16980;DHT22;42288;52.182;21.156;2023-07-13T10:08:27;27.70;84.20
16980;DHT22;42288;52.182;21.156;2023-07-13T10:11:01;27.50;86.90
16980;DHT22;42288;52.182;21.156;2023-07-13T10:15:54;27.10;87.20
16980;DHT22;42288;52.182;21.156;2023-07-13T10:18:22;26.90;87.60
16980;DHT22;42288;52.182;21.156;2023-07-13T10:20:54;26.60;87.90
16980;DHT22;42288;52.182;21.156;2023-07-13T10:23:31;26.20;89.70
16980;DHT22;42288;52.182;21.156;2023-07-13T10:25:59;26.00;89.20
16980;DHT22;42288;52.182;21.156;2023-07-13T10:28:29;25.90;89.90
16980;DHT22;42288;52.182;21.156;2023-07-13T10:30:56;25.70;89.20
16980;DHT22;42288;52.182;21.156;2023-07-13T10:33:23;25.50;90.10
16980;DHT22;42288;52.182;21.156;2023-07-13T10:35:52;25.50;90.20
16980;DHT22;42288;52.182;21.156;2023-07-13T10:38:22;25.30;90.10
16980;DHT22;42288;52.182;21.156;2023-07-13T10:41:08;25.40;90.70
16980;DHT22;42288;52.182;21.156;2023-07-13T10:43:42;25.30;90.80
16980;DHT22;42288;52.182;21.156;2023-07-13T10:46:12;25.30;90.50
16980;DHT22;42288;52.182;21.156;2023-07-13T10:48:40;25.20;90.40
16980;DHT22;42288;52.182;21.156;2023-07-13T10:51:08;24.70;90.40
16980;DHT22;42288;52.182;21.156;2023-07-13T10:53:37;24.60;90.90
16980;DHT22;42288;52.182;21.156;2023-07-13T10:56:28;24.50;91.90
16980;DHT22;42288;52.182;21.156;2023-07-13T10:59:24;24.40;93.60
16980;DHT22;42288;52.182;21.156;2023-07-13T11:02:08;24.10;94.40
16980;DHT22;42288;52.182;21.156;2023-07-13T11:04:48;23.90;94.90
16980;DHT22;42288;52.182;21.156;2023-07-13T11:07:30;23.70;95.40
16980;DHT22;42288;52.182;21.156;2023-07-13T11:10:04;23.70;96.50
16980;DHT22;42288;52.182;21.156;2023-07-13T11:12:53;23.40;99.20
16980;DHT22;42288;52.182;21.156;2023-07-13T11:15:42;23.00;99.90
16980;DHT22;42288;52.182;21.156;2023-07-13T11:18:21;22.40;99.90
16980;DHT22;42288;52.182;21.156;2023-07-13T11:20:48;22.30;99.90
16980;DHT22;42288;52.182;21.156;2023-07-13T11:25:43;21.30;99.90
16980;DHT22;42288;52.182;21.156;2023-07-13T11:30:42;19.60;99.90
16980;DHT22;42288;52.182;21.156;2023-07-13T11:36:14;19.20;99.90
16980;DHT22;42288;52.182;21.156;2023-07-13T11:41:32;19.00;99.90
16980;DHT22;42288;52.182;21.156;2023-07-13T11:44:11;19.00;99.90
16980;DHT22;42288;52.182;21.156;2023-07-13T11:46:37;19.00;99.90
16980;DHT22;42288;52.182;21.156;2023-07-13T11:49:05;19.00;99.90
16980;DHT22;42288;52.182;21.156;2023-07-13T11:51:34;19.10;99.90
16980;DHT22;42288;52.182;21.156;2023-07-13T11:54:18;19.20;99.90
16980;DHT22;42288;52.182;21.156;2023-07-13T11:56:46;19.20;99.90
16980;DHT22;42288;52.182;21.156;2023-07-13T11:59:13;19.10;99.90
16980;DHT22;42288;52.182;21.156;2023-07-13T12:01:53;19.20;99.90
16980;DHT22;42288;52.182;21.156;2023-07-13T12:07:12;19.30;99.90
16980;DHT22;42288;52.182;21.156;2023-07-13T12:09:40;19.30;99.90
16980;DHT22;42288;52.182;21.156;2023-07-13T12:12:12;19.40;99.90
16980;DHT22;42288;52.182;21.156;2023-07-13T12:14:38;19.40;99.90
16980;DHT22;42288;52.182;21.156;2023-07-13T12:17:19;19.40;99.90
16980;DHT22;42288;52.182;21.156;2023-07-13T12:19:45;19.40;99.90
16980;DHT22;42288;52.182;21.156;2023-07-13T12:22:13;19.30;99.90
16980;DHT22;42288;52.182;21.156;2023-07-13T12:24:40;19.30;99.90
16980;DHT22;42288;52.182;21.156;2023-07-13T12:27:14;19.30;99.90
16980;DHT22;42288;52.182;21.156;2023-07-13T12:29:59;19.50;99.90
16980;DHT22;42288;52.182;21.156;2023-07-13T12:32:25;19.50;99.90
16980;DHT22;42288;52.182;21.156;2023-07-13T12:34:56;19.30;99.90
16980;DHT22;42288;52.182;21.156;2023-07-13T12:37:22;19.20;99.90
16980;DHT22;42288;52.182;21.156;2023-07-13T12:39:49;19.30;99.90
16980;DHT22;42288;52.182;21.156;2023-07-13T12:42:24;19.40;99.90
16980;DHT22;42288;52.182;21.156;2023-07-13T12:47:43;19.40;99.90
16980;DHT22;42288;52.182;21.156;2023-07-13T12:50:18;19.50;99.90
16980;DHT22;42288;52.182;21.156;2023-07-13T12:52:49;19.40;99.90
16980;DHT22;42288;52.182;21.156;2023-07-13T12:55:20;19.50;99.90
16980;DHT22;42288;52.182;21.156;2023-07-13T12:57:55;19.50;99.90
16980;DHT22;42288;52.182;21.156;2023-07-13T13:02:50;19.70;99.90
16980;DHT22;42288;52.182;21.156;2023-07-13T13:05:17;19.70;99.90
16980;DHT22;42288;52.182;21.156;2023-07-13T13:07:43;19.70;99.90
16980;DHT22;42288;52.182;21.156;2023-07-13T13:10:13;19.80;99.90
16980;DHT22;42288;52.182;21.156;2023-07-13T13:12:39;19.80;99.90
16980;DHT22;42288;52.182;21.156;2023-07-13T13:15:08;19.70;99.90
16980;DHT22;42288;52.182;21.156;2023-07-13T13:17:34;19.80;99.90
16980;DHT22;42288;52.182;21.156;2023-07-13T13:20:00;19.70;99.90
16980;DHT22;42288;52.182;21.156;2023-07-13T13:22:26;19.70;99.90
16980;DHT22;42288;52.182;21.156;2023-07-13T13:24:52;19.50;99.90
16980;DHT22;42288;52.182;21.156;2023-07-13T13:27:22;19.60;99.90
16980;DHT22;42288;52.182;21.156;2023-07-13T13:29:49;19.50;99.90
16980;DHT22;42288;52.182;21.156;2023-07-13T13:32:17;19.60;99.90
16980;DHT22;42288;52.182;21.156;2023-07-13T13:34:42;19.80;99.90
16980;DHT22;42288;52.182;21.156;2023-07-13T13:37:20;19.80;99.90
16980;DHT22;42288;52.182;21.156;2023-07-13T13:39:46;19.90;99.90
16980;DHT22;42288;52.182;21.156;2023-07-13T13:42:12;19.90;99.90
16980;DHT22;42288;52.182;21.156;2023-07-13T13:44:38;19.90;99.90
16980;DHT22;42288;52.182;21.156;2023-07-13T13:47:04;19.90;99.90
16980;DHT22;42288;52.182;21.156;2023-07-13T13:49:30;19.90;99.90
16980;DHT22;42288;52.182;21.156;2023-07-13T13:51:56;19.90;99.90
16980;DHT22;42288;52.182;21.156;2023-07-13T13:54:23;19.90;99.90
16980;DHT22;42288;52.182;21.156;2023-07-13T13:56:50;19.90;99.90
16980;DHT22;42288;52.182;21.156;2023-07-13T13:59:16;20.00;99.90
16980;DHT22;42288;52.182;21.156;2023-07-13T14:01:44;20.00;99.90
16980;DHT22;42288;52.182;21.156;2023-07-13T14:04:15;20.00;99.90
16980;DHT22;42288;52.182;21.156;2023-07-13T14:06:43;20.00;99.90
16980;DHT22;42288;52.182;21.156;2023-07-13T14:09:15;20.10;99.90
16980;DHT22;42288;52.182;21.156;2023-07-13T14:11:42;20.10;99.90
16980;DHT22;42288;52.182;21.156;2023-07-13T14:14:14;20.10;99.90
16980;DHT22;42288;52.182;21.156;2023-07-13T14:16:41;20.10;99.90
16980;DHT22;42288;52.182;21.156;2023-07-13T14:19:11;20.20;99.90
16980;DHT22;42288;52.182;21.156;2023-07-13T14:21:37;20.20;99.90
16980;DHT22;42288;52.182;21.156;2023-07-13T14:24:03;20.10;99.90
16980;DHT22;42288;52.182;21.156;2023-07-13T14:26:35;20.10;99.90
16980;DHT22;42288;52.182;21.156;2023-07-13T14:29:01;20.10;99.90
16980;DHT22;42288;52.182;21.156;2023-07-13T14:31:28;20.10;99.90
16980;DHT22;42288;52.182;21.156;2023-07-13T14:33:56;20.00;99.90
16980;DHT22;42288;52.182;21.156;2023-07-13T14:36:31;20.10;99.90
16980;DHT22;42288;52.182;21.156;2023-07-13T14:38:59;20.10;99.90
16980;DHT22;42288;52.182;21.156;2023-07-13T14:41:26;20.10;99.90
16980;DHT22;42288;52.182;21.156;2023-07-13T14:43:52;20.10;99.90
16980;DHT22;42288;52.182;21.156;2023-07-13T14:46:24;20.10;99.90
16980;DHT22;42288;52.182;21.156;2023-07-13T14:48:53;20.10;99.90
16980;DHT22;42288;52.182;21.156;2023-07-13T14:51:21;20.10;99.90
16980;DHT22;42288;52.182;21.156;2023-07-13T14:53:46;20.10;99.90
16980;DHT22;42288;52.182;21.156;2023-07-13T14:56:12;20.10;99.90
16980;DHT22;42288;52.182;21.156;2023-07-13T14:58:38;20.10;99.90
16980;DHT22;42288;52.182;21.156;2023-07-13T15:01:11;20.10;99.90
16980;DHT22;42288;52.182;21.156;2023-07-13T15:03:44;20.20;99.90
16980;DHT22;42288;52.182;21.156;2023-07-13T15:06:11;20.20;99.90
16980;DHT22;42288;52.182;21.156;2023-07-13T15:08:37;20.10;99.90
16980;DHT22;42288;52.182;21.156;2023-07-13T15:11:03;20.10;99.90
16980;DHT22;42288;52.182;21.156;2023-07-13T15:13:30;20.10;99.90
16980;DHT22;42288;52.182;21.156;2023-07-13T15:15:56;20.20;99.90
16980;DHT22;42288;52.182;21.156;2023-07-13T15:18:24;20.10;99.90
16980;DHT22;42288;52.182;21.156;2023-07-13T15:20:51;20.10;99.90
16980;DHT22;42288;52.182;21.156;2023-07-13T15:23:18;20.10;99.90
16980;DHT22;42288;52.182;21.156;2023-07-13T15:25:44;20.00;99.90
16980;DHT22;42288;52.182;21.156;2023-07-13T15:28:10;20.10;99.90
16980;DHT22;42288;52.182;21.156;2023-07-13T15:30:41;20.00;99.90
16980;DHT22;42288;52.182;21.156;2023-07-13T15:35:37;19.90;99.90
16980;DHT22;42288;52.182;21.156;2023-07-13T15:38:14;19.90;99.90
16980;DHT22;42288;52.182;21.156;2023-07-13T15:40:41;20.00;99.90
16980;DHT22;42288;52.182;21.156;2023-07-13T15:43:11;20.00;99.90
16980;DHT22;42288;52.182;21.156;2023-07-13T15:45:37;20.00;99.90
16980;DHT22;42288;52.182;21.156;2023-07-13T15:50:46;19.80;99.90
16980;DHT22;42288;52.182;21.156;2023-07-13T15:53:14;19.80;99.90
16980;DHT22;42288;52.182;21.156;2023-07-13T15:56:19;19.80;99.90
16980;DHT22;42288;52.182;21.156;2023-07-13T15:58:46;19.80;99.90
16980;DHT22;42288;52.182;21.156;2023-07-13T16:01:12;19.70;99.90